Time;durP1;ratioP1;P1;durP2;ratioP2;P2;SDS_P1;SDS_P2;PMS_P1;PMS_P2;Temp;Humidity;BMP_temperature;BMP_pressure;BME280_temperature;BME280_humidity;BME280_pressure;Samples;Min_cycle;Max_cycle;Signal;HPM_P1;HPM_P2
2021/04/20 00:02:12;;;;;;;2.67;1.50;;;;;;;;;;4976684;28;20229;-65
2021/04/20 00:04:39;;;;;;;0.57;0.57;;;;;;;;;;4977294;28;20182;-63
2021/04/20 00:07:06;;;;;;;0.57;0.53;;;;;;;;;;4977853;28;20237;-65
2021/04/20 00:09:32;;;;;;;4.23;2.53;;;;;;;;;;4977178;28;20259;-65
2021/04/20 00:11:59;;;;;;;1.17;0.83;;;;;;;;;;4977626;28;20216;-66
2021/04/20 00:14:25;;;;;;;0.20;0.20;;;;;;;;;;4975555;28;21523;-53
2021/04/20 00:16:52;;;;;;;2.53;1.13;;;;;;;;;;4981032;28;20206;-58
2021/04/20 00:19:19;;;;;;;0.23;0.23;;;;;;;;;;4976421;28;20213;-60
2021/04/20 00:21:46;;;;;;;0.00;0.00;;;;;;;;;;4975162;28;20299;-64
2021/04/20 00:24:12;;;;;;;0.10;0.10;;;;;;;;;;4974920;28;20190;-70
2021/04/20 00:26:39;;;;;;;0.00;0.00;;;;;;;;;;4978560;28;20200;-63
2021/04/20 00:29:06;;;;;;;0.10;0.10;;;;;;;;;;4979565;28;20178;-60
2021/04/20 00:31:32;;;;;;;0.50;0.50;;;;;;;;;;4980051;28;20185;-59
2021/04/20 00:34:00;;;;;;;1.60;1.10;;;;;;;;;;4975026;28;20189;-59
2021/04/20 00:36:27;;;;;;;0.20;0.20;;;;;;;;;;4979405;28;20331;-66
2021/04/20 00:38:53;;;;;;;0.57;0.30;;;;;;;;;;4966598;28;20579;-65
2021/04/20 00:41:20;;;;;;;0.47;0.30;;;;;;;;;;4979711;28;20220;-65
2021/04/20 00:43:48;;;;;;;2.53;0.93;;;;;;;;;;4980138;28;20217;-65
2021/04/20 00:46:20;;;;;;;1.73;1.33;;;;;;;;;;4966470;28;20189;-64
2021/04/20 00:48:47;;;;;;;0.87;0.53;;;;;;;;;;4974814;28;20193;-65
2021/04/20 00:51:15;;;;;;;0.50;0.50;;;;;;;;;;4968883;28;20205;-65
2021/04/20 00:53:42;;;;;;;0.00;0.00;;;;;;;;;;4960704;28;20190;-66
2021/04/20 00:56:08;;;;;;;0.23;0.23;;;;;;;;;;4971045;28;20198;-66
2021/04/20 00:58:35;;;;;;;0.00;0.00;;;;;;;;;;4968999;28;20186;-65
2021/04/20 01:01:03;;;;;;;2.33;1.10;;;;;;;;;;4967849;28;20300;-65
2021/04/20 01:03:30;;;;;;;0.00;0.00;;;;;;;;;;4971309;28;20265;-67
2021/04/20 01:05:57;;;;;;;0.00;0.00;;;;;;;;;;4978103;28;20243;-66
2021/04/20 01:08:25;;;;;;;0.00;0.00;;;;;;;;;;4972943;28;20194;-65
2021/04/20 01:10:53;;;;;;;0.73;0.60;;;;;;;;;;4967841;28;20217;-65
2021/04/20 01:13:23;;;;;;;0.00;0.00;;;;;;;;;;4979011;28;20198;-65
2021/04/20 01:15:51;;;;;;;0.00;0.00;;;;;;;;;;4979040;28;20518;-65
2021/04/20 01:18:19;;;;;;;0.00;0.00;;;;;;;;;;4964690;28;20192;-59
2021/04/20 01:20:47;;;;;;;0.10;0.10;;;;;;;;;;4978497;28;20913;-58
2021/04/20 01:23:15;;;;;;;1.70;1.60;;;;;;;;;;4976965;28;20259;-58
2021/04/20 01:25:42;;;;;;;0.03;0.03;;;;;;;;;;4971092;28;20182;-58
2021/04/20 01:28:08;;;;;;;0.10;0.10;;;;;;;;;;4959277;28;20396;-58
2021/04/20 01:30:35;;;;;;;0.00;0.00;;;;;;;;;;4966612;28;20213;-56
2021/04/20 01:33:06;;;;;;;0.00;0.00;;;;;;;;;;4965074;28;20301;-58
2021/04/20 01:35:36;;;;;;;1.03;0.93;;;;;;;;;;4978047;28;20215;-57
2021/04/20 01:38:05;;;;;;;0.00;0.00;;;;;;;;;;4973299;28;20305;-57
2021/04/20 01:40:32;;;;;;;3.60;1.70;;;;;;;;;;4967200;28;20197;-58
2021/04/20 01:43:01;;;;;;;0.00;0.00;;;;;;;;;;4965658;28;20206;-57
2021/04/20 01:45:29;;;;;;;0.83;0.57;;;;;;;;;;4974551;28;20212;-58
2021/04/20 01:47:55;;;;;;;0.40;0.40;;;;;;;;;;4973229;28;20272;-56
2021/04/20 01:50:23;;;;;;;0.00;0.00;;;;;;;;;;4973927;28;20186;-57
2021/04/20 01:52:50;;;;;;;0.00;0.00;;;;;;;;;;4965970;28;20190;-57
2021/04/20 01:55:16;;;;;;;7.10;3.70;;;;;;;;;;4974070;28;20696;-57
2021/04/20 01:57:46;;;;;;;0.00;0.00;;;;;;;;;;4969592;28;20197;-58
2021/04/20 02:00:14;;;;;;;1.80;1.70;;;;;;;;;;4973322;28;20187;-58
2021/04/20 02:02:41;;;;;;;0.63;0.50;;;;;;;;;;4969490;28;20239;-58
2021/04/20 02:05:09;;;;;;;0.10;0.10;;;;;;;;;;4969272;28;20185;-59
2021/04/20 02:07:36;;;;;;;0.00;0.00;;;;;;;;;;4970139;28;20189;-58
2021/04/20 02:10:05;;;;;;;0.00;0.00;;;;;;;;;;4974647;28;20190;-59
2021/04/20 02:12:31;;;;;;;0.20;0.20;;;;;;;;;;4971363;28;20186;-58
2021/04/20 02:14:58;;;;;;;1.50;1.40;;;;;;;;;;4971878;28;20186;-58
2021/04/20 02:17:25;;;;;;;0.10;0.10;;;;;;;;;;4974310;28;21004;-58
2021/04/20 02:19:51;;;;;;;0.10;0.10;;;;;;;;;;4969740;28;20344;-58
2021/04/20 02:22:19;;;;;;;1.07;1.03;;;;;;;;;;4965583;28;20734;-58
2021/04/20 02:24:46;;;;;;;0.00;0.00;;;;;;;;;;4968395;28;20851;-58
2021/04/20 02:27:12;;;;;;;0.10;0.10;;;;;;;;;;4972792;28;20770;-59
2021/04/20 02:29:39;;;;;;;0.00;0.00;;;;;;;;;;4970518;28;20244;-59
2021/04/20 02:32:07;;;;;;;0.00;0.00;;;;;;;;;;4977003;28;20468;-58
2021/04/20 02:34:34;;;;;;;0.10;0.10;;;;;;;;;;4970541;28;20192;-58
2021/04/20 02:37:01;;;;;;;8.93;0.87;;;;;;;;;;4971667;28;20328;-58
2021/04/20 02:39:27;;;;;;;0.10;0.10;;;;;;;;;;4980821;28;20200;-58
2021/04/20 02:41:55;;;;;;;0.10;0.10;;;;;;;;;;4979503;28;20225;-59
2021/04/20 02:44:22;;;;;;;0.10;0.10;;;;;;;;;;4975021;28;20197;-60
2021/04/20 02:46:48;;;;;;;0.10;0.10;;;;;;;;;;4975229;28;20189;-60
2021/04/20 02:49:15;;;;;;;0.03;0.03;;;;;;;;;;4973937;28;20215;-60
2021/04/20 02:51:43;;;;;;;0.20;0.20;;;;;;;;;;4976192;28;20292;-70
2021/04/20 02:54:13;;;;;;;0.23;0.23;;;;;;;;;;4972762;28;20890;-70
2021/04/20 02:56:40;;;;;;;0.63;0.63;;;;;;;;;;4972753;28;20209;-69
2021/04/20 02:59:09;;;;;;;0.00;0.00;;;;;;;;;;4971685;28;20748;-67
2021/04/20 03:01:37;;;;;;;3.57;2.33;;;;;;;;;;4971724;28;20244;-68
2021/04/20 03:04:04;;;;;;;1.13;1.03;;;;;;;;;;4965591;28;20198;-66
2021/04/20 03:06:31;;;;;;;4.03;0.77;;;;;;;;;;4974470;28;20197;-67
2021/04/20 03:08:58;;;;;;;1.60;0.60;;;;;;;;;;4973320;28;20223;-66
2021/04/20 03:11:27;;;;;;;5.30;2.90;;;;;;;;;;4979825;28;20706;-66
2021/04/20 03:13:54;;;;;;;1.10;0.63;;;;;;;;;;4968604;28;20200;-69
2021/04/20 03:16:21;;;;;;;0.07;0.07;;;;;;;;;;4966999;28;20782;-69
2021/04/20 03:18:49;;;;;;;9.47;4.90;;;;;;;;;;4973594;28;20198;-69
2021/04/20 03:21:16;;;;;;;0.17;0.17;;;;;;;;;;4970596;28;20197;-69
2021/04/20 03:23:43;;;;;;;0.10;0.10;;;;;;;;;;4972292;28;20213;-69
2021/04/20 03:26:33;;;;;;;0.10;0.10;;;;;;;;;;4970521;28;20205;-70
2021/04/20 03:29:01;;;;;;;4.10;3.00;;;;;;;;;;4970281;28;20217;-69
2021/04/20 03:31:28;;;;;;;0.20;0.20;;;;;;;;;;4970281;28;20270;-70
2021/04/20 03:34:15;;;;;;;10.53;5.63;;;;;;;;;;4974265;28;20194;-70
2021/04/20 03:36:44;;;;;;;0.10;0.10;;;;;;;;;;4973582;28;20197;-70
2021/04/20 03:39:13;;;;;;;0.10;0.10;;;;;;;;;;4975837;28;20204;-69
2021/04/20 03:41:58;;;;;;;2.03;0.93;;;;;;;;;;4964630;28;20200;-69
2021/04/20 03:44:31;;;;;;;8.53;1.63;;;;;;;;;;4968747;28;20200;-70
2021/04/20 03:47:00;;;;;;;0.30;0.30;;;;;;;;;;4966366;28;20194;-69
2021/04/20 03:49:31;;;;;;;2.23;1.07;;;;;;;;;;4969561;28;20293;-69
2021/04/20 03:51:58;;;;;;;1.30;0.90;;;;;;;;;;4978040;28;20190;-69
2021/04/20 03:54:26;;;;;;;0.10;0.10;;;;;;;;;;4972385;28;20667;-67
2021/04/20 03:56:55;;;;;;;0.07;0.07;;;;;;;;;;4975186;28;20288;-67
2021/04/20 03:59:22;;;;;;;2.13;1.17;;;;;;;;;;4973226;28;20277;-68
2021/04/20 04:01:51;;;;;;;46.33;29.03;;;;;;;;;;4965464;28;20230;-68
2021/04/20 04:04:19;;;;;;;0.07;0.07;;;;;;;;;;4969145;28;20201;-68
2021/04/20 04:06:47;;;;;;;1.00;0.87;;;;;;;;;;4969473;28;20186;-67
2021/04/20 04:09:16;;;;;;;1.80;0.10;;;;;;;;;;4968472;28;20890;-68
2021/04/20 04:11:49;;;;;;;0.37;0.17;;;;;;;;;;4970287;28;20297;-60
2021/04/20 04:14:17;;;;;;;0.67;0.67;;;;;;;;;;4964701;28;20189;-58
2021/04/20 04:16:44;;;;;;;0.30;0.30;;;;;;;;;;4968544;28;20906;-59
2021/04/20 04:19:11;;;;;;;0.10;0.10;;;;;;;;;;4963914;28;20193;-59
2021/04/20 04:21:47;;;;;;;9.53;1.60;;;;;;;;;;4965912;28;20189;-60
2021/04/20 04:24:18;;;;;;;10.40;5.30;;;;;;;;;;4965173;28;20367;-59
2021/04/20 04:26:53;;;;;;;0.10;0.10;;;;;;;;;;4965912;28;20967;-60
2021/04/20 04:29:20;;;;;;;0.20;0.20;;;;;;;;;;4968238;28;20216;-60
2021/04/20 04:31:47;;;;;;;1.70;1.60;;;;;;;;;;4967012;28;20938;-60
2021/04/20 04:34:16;;;;;;;0.10;0.10;;;;;;;;;;4962542;28;20199;-59
2021/04/20 04:36:42;;;;;;;4.23;1.13;;;;;;;;;;4975175;28;20185;-59
2021/04/20 04:39:15;;;;;;;0.90;0.90;;;;;;;;;;4969106;28;20211;-59
2021/04/20 04:41:43;;;;;;;4.53;0.93;;;;;;;;;;4965981;28;20181;-59
2021/04/20 04:44:12;;;;;;;2.00;1.90;;;;;;;;;;4970279;28;20185;-58
2021/04/20 04:46:43;;;;;;;13.33;2.73;;;;;;;;;;4963576;28;20912;-58
2021/04/20 04:49:10;;;;;;;7.57;5.73;;;;;;;;;;4966505;28;20197;-58
2021/04/20 04:51:40;;;;;;;0.17;0.17;;;;;;;;;;4962889;28;20419;-59
2021/04/20 04:54:11;;;;;;;0.30;0.30;;;;;;;;;;4972098;28;20201;-58
2021/04/20 04:56:39;;;;;;;0.30;0.30;;;;;;;;;;4972966;28;20200;-59
2021/04/20 04:59:07;;;;;;;0.23;0.23;;;;;;;;;;4969388;28;20212;-59
2021/04/20 05:01:37;;;;;;;0.20;0.20;;;;;;;;;;4971312;28;20216;-59
2021/04/20 05:04:07;;;;;;;0.30;0.30;;;;;;;;;;4972225;28;20306;-59
2021/04/20 05:06:44;;;;;;;0.13;0.13;;;;;;;;;;4967864;28;20205;-59
2021/04/20 05:09:11;;;;;;;0.57;0.50;;;;;;;;;;4965425;28;21006;-59
2021/04/20 05:11:40;;;;;;;0.00;0.00;;;;;;;;;;4965698;28;20358;-59
2021/04/20 05:14:08;;;;;;;0.10;0.10;;;;;;;;;;4971202;28;20198;-58
2021/04/20 05:16:34;;;;;;;0.43;0.43;;;;;;;;;;4964529;28;20612;-58
2021/04/20 05:19:02;;;;;;;0.27;0.27;;;;;;;;;;4968405;28;20201;-58
2021/04/20 05:21:29;;;;;;;0.20;0.20;;;;;;;;;;4967279;28;20185;-58
2021/04/20 05:23:56;;;;;;;0.07;0.07;;;;;;;;;;4962216;28;20221;-58
2021/04/20 05:26:22;;;;;;;0.30;0.30;;;;;;;;;;4974657;28;20298;-58
2021/04/20 05:28:49;;;;;;;2.93;1.07;;;;;;;;;;4963764;28;21055;-59
2021/04/20 05:31:17;;;;;;;0.17;0.17;;;;;;;;;;4965241;28;20328;-58
2021/04/20 05:33:43;;;;;;;0.03;0.03;;;;;;;;;;4968946;28;20741;-58
2021/04/20 05:36:10;;;;;;;0.43;0.43;;;;;;;;;;4965598;28;20221;-58
2021/04/20 05:38:38;;;;;;;2.10;1.37;;;;;;;;;;4965311;28;20190;-58
2021/04/20 05:41:06;;;;;;;0.10;0.10;;;;;;;;;;4970006;28;20190;-58
2021/04/20 05:43:32;;;;;;;12.93;1.40;;;;;;;;;;4976608;28;20279;-59
2021/04/20 05:45:59;;;;;;;0.40;0.40;;;;;;;;;;4975078;28;20251;-59
2021/04/20 05:48:25;;;;;;;0.83;0.83;;;;;;;;;;4972784;28;20212;-59
2021/04/20 05:50:52;;;;;;;15.00;1.73;;;;;;;;;;4974991;28;20202;-59
2021/04/20 05:53:19;;;;;;;0.10;0.10;;;;;;;;;;4981167;28;20196;-59
2021/04/20 05:55:45;;;;;;;0.60;0.60;;;;;;;;;;4971101;28;20260;-58
2021/04/20 05:58:12;;;;;;;3.20;0.70;;;;;;;;;;4982092;28;20213;-59
2021/04/20 06:00:39;;;;;;;0.10;0.10;;;;;;;;;;4974975;28;20189;-59
2021/04/20 06:03:05;;;;;;;1.57;1.57;;;;;;;;;;4970344;28;20244;-58
2021/04/20 06:05:32;;;;;;;0.10;0.10;;;;;;;;;;4971168;28;20190;-58
2021/04/20 06:08:01;;;;;;;0.00;0.00;;;;;;;;;;4976074;28;20224;-58
2021/04/20 06:10:27;;;;;;;0.10;0.10;;;;;;;;;;4975307;28;20186;-59
2021/04/20 06:12:54;;;;;;;0.20;0.20;;;;;;;;;;4976710;28;20909;-59
2021/04/20 06:15:22;;;;;;;1.43;1.00;;;;;;;;;;4971818;28;20197;-59
2021/04/20 06:17:51;;;;;;;0.10;0.10;;;;;;;;;;4976297;28;20197;-58
2021/04/20 06:20:19;;;;;;;1.33;0.43;;;;;;;;;;4971613;28;20801;-59
2021/04/20 06:22:49;;;;;;;0.10;0.10;;;;;;;;;;4968594;28;20711;-58
2021/04/20 06:25:16;;;;;;;6.40;1.70;;;;;;;;;;4968988;28;20854;-58
2021/04/20 06:27:43;;;;;;;0.10;0.10;;;;;;;;;;4968340;28;20251;-58
2021/04/20 06:30:11;;;;;;;0.00;0.00;;;;;;;;;;4974708;28;20200;-58
2021/04/20 06:32:42;;;;;;;0.10;0.10;;;;;;;;;;4978822;28;20979;-58
2021/04/20 06:35:11;;;;;;;0.07;0.07;;;;;;;;;;4973543;28;20197;-58
2021/04/20 06:37:38;;;;;;;0.00;0.00;;;;;;;;;;4968897;28;20886;-58
2021/04/20 06:40:25;;;;;;;0.30;0.20;;;;;;;;;;4970180;28;20819;-68
2021/04/20 06:42:56;;;;;;;4.20;2.27;;;;;;;;;;4971703;28;20221;-69
2021/04/20 06:45:43;;;;;;;0.17;0.17;;;;;;;;;;4970319;28;20904;-68
2021/04/20 06:48:09;;;;;;;0.10;0.10;;;;;;;;;;4967704;28;20945;-68
2021/04/20 06:50:36;;;;;;;0.10;0.10;;;;;;;;;;4973150;28;20796;-68
2021/04/20 06:53:08;;;;;;;35.53;17.50;;;;;;;;;;4971469;28;20198;-68
2021/04/20 06:55:44;;;;;;;0.10;0.10;;;;;;;;;;4969072;28;20215;-68
2021/04/20 06:58:14;;;;;;;0.03;0.03;;;;;;;;;;4968809;28;20193;-68
2021/04/20 07:00:42;;;;;;;0.00;0.00;;;;;;;;;;4968916;28;20834;-69
2021/04/20 07:03:12;;;;;;;2.10;1.13;;;;;;;;;;4970260;28;20233;-70
2021/04/20 07:05:48;;;;;;;0.27;0.20;;;;;;;;;;4972783;28;20244;-68
2021/04/20 07:08:25;;;;;;;0.10;0.10;;;;;;;;;;4967650;28;20312;-67
2021/04/20 07:10:54;;;;;;;0.10;0.10;;;;;;;;;;4975136;28;20224;-67
2021/04/20 07:13:22;;;;;;;1.43;1.17;;;;;;;;;;4972635;28;20205;-68
2021/04/20 07:15:51;;;;;;;1.70;1.70;;;;;;;;;;4973519;28;20288;-67
2021/04/20 07:18:26;;;;;;;0.00;0.00;;;;;;;;;;4970621;28;20226;-67
2021/04/20 07:21:11;;;;;;;6.07;0.67;;;;;;;;;;4970731;28;20569;-68
2021/04/20 07:23:45;;;;;;;0.17;0.13;;;;;;;;;;4968868;28;20221;-66
2021/04/20 07:26:30;;;;;;;0.10;0.10;;;;;;;;;;4971099;28;20703;-67
2021/04/20 07:29:15;;;;;;;1.03;1.03;;;;;;;;;;4969299;28;20259;-67
2021/04/20 07:32:01;;;;;;;0.10;0.10;;;;;;;;;;4975173;28;20192;-67
2021/04/20 07:34:31;;;;;;;2.73;0.97;;;;;;;;;;4970316;28;20952;-67
2021/04/20 07:36:57;;;;;;;3.10;2.33;;;;;;;;;;4969803;28;20198;-67
2021/04/20 07:39:25;;;;;;;4.13;0.63;;;;;;;;;;4972469;28;20201;-67
2021/04/20 07:41:52;;;;;;;0.57;0.47;;;;;;;;;;4970002;28;20277;-67
2021/04/20 07:44:21;;;;;;;0.30;0.30;;;;;;;;;;4967071;28;20204;-67
2021/04/20 07:46:58;;;;;;;0.73;0.73;;;;;;;;;;4969228;28;20189;-67
2021/04/20 07:49:44;;;;;;;0.00;0.00;;;;;;;;;;4974864;28;20235;-67
2021/04/20 07:52:14;;;;;;;9.67;1.90;;;;;;;;;;4976676;28;20197;-66
2021/04/20 07:54:46;;;;;;;12.37;1.67;;;;;;;;;;4984024;28;20189;-66
2021/04/20 07:57:16;;;;;;;0.30;0.30;;;;;;;;;;4973921;28;20196;-67
2021/04/20 07:59:45;;;;;;;0.20;0.20;;;;;;;;;;4969692;28;20267;-67
2021/04/20 08:02:41;;;;;;;0.10;0.10;;;;;;;;;;4974730;28;20347;-67
2021/04/20 08:05:28;;;;;;;0.00;0.00;;;;;;;;;;4967033;28;20223;-67
2021/04/20 08:07:55;;;;;;;0.83;0.40;;;;;;;;;;4968699;28;20235;-67
2021/04/20 08:10:48;;;;;;;0.43;0.43;;;;;;;;;;4968367;28;20318;-67
2021/04/20 08:13:17;;;;;;;0.30;0.30;;;;;;;;;;4969786;28;20284;-68
2021/04/20 08:15:50;;;;;;;0.73;0.73;;;;;;;;;;4968330;28;20190;-67
2021/04/20 08:18:24;;;;;;;0.60;0.60;;;;;;;;;;4968777;28;20845;-68
2021/04/20 08:20:52;;;;;;;0.40;0.30;;;;;;;;;;4971084;28;20193;-69
2021/04/20 08:23:19;;;;;;;10.40;1.10;;;;;;;;;;4967417;28;20225;-67
2021/04/20 08:25:51;;;;;;;0.67;0.67;;;;;;;;;;4974117;28;20182;-70
2021/04/20 08:28:17;;;;;;;2.57;0.93;;;;;;;;;;4973665;28;20297;-69
2021/04/20 08:31:02;;;;;;;0.10;0.10;;;;;;;;;;4970173;28;20674;-70
2021/04/20 08:33:32;;;;;;;0.00;0.00;;;;;;;;;;4970701;28;20189;-70
2021/04/20 08:36:02;;;;;;;0.30;0.30;;;;;;;;;;4974752;28;20283;-70
2021/04/20 08:38:41;;;;;;;0.10;0.10;;;;;;;;;;4969592;28;20198;-69
2021/04/20 08:41:33;;;;;;;47.47;2.77;;;;;;;;;;4975811;28;20194;-69
2021/04/20 08:44:08;;;;;;;2.33;0.83;;;;;;;;;;4967240;28;21009;-67
2021/04/20 08:46:38;;;;;;;9.43;1.60;;;;;;;;;;4967033;28;20185;-69
2021/04/20 08:49:10;;;;;;;1.17;1.17;;;;;;;;;;4965188;28;20709;-69
2021/04/20 08:51:44;;;;;;;0.20;0.20;;;;;;;;;;4971718;28;20274;-68
2021/04/20 08:54:10;;;;;;;0.10;0.10;;;;;;;;;;4966909;28;20633;-68
2021/04/20 08:56:46;;;;;;;0.73;0.73;;;;;;;;;;4968119;28;20196;-69
2021/04/20 08:59:32;;;;;;;0.00;0.00;;;;;;;;;;4964739;28;20205;-69
2021/04/20 09:01:58;;;;;;;0.00;0.00;;;;;;;;;;4968141;28;20232;-70
2021/04/20 09:04:41;;;;;;;2.70;1.23;;;;;;;;;;4969700;28;20198;-70
2021/04/20 13:21:51;;;;;;;0.73;0.73;;;;;;;;;;5020657;27;2068516;-59
2021/04/20 13:24:19;;;;;;;15.07;2.13;;;;;;;;;;5088923;28;20201;-59
2021/04/20 13:26:47;;;;;;;1.40;1.30;;;;;;;;;;5089343;28;20218;-59
2021/04/20 13:29:14;;;;;;;9.17;6.07;;;;;;;;;;5089638;28;20216;-59
2021/04/20 13:31:42;;;;;;;6.60;1.03;;;;;;;;;;5079398;28;20192;-59
2021/04/20 13:34:14;;;;;;;1.37;0.87;;;;;;;;;;5077217;28;20758;-59
2021/04/20 13:36:47;;;;;;;0.73;0.50;;;;;;;;;;5087487;28;20544;-58
2021/04/20 13:39:16;;;;;;;1.90;1.30;;;;;;;;;;5076309;28;20182;-59
2021/04/20 13:41:53;;;;;;;2.77;1.87;;;;;;;;;;5077249;28;20206;-59
2021/04/20 13:44:24;;;;;;;0.93;0.80;;;;;;;;;;5088337;28;20734;-59
2021/04/20 13:46:52;;;;;;;5.93;0.83;;;;;;;;;;5085597;28;20192;-59
2021/04/20 13:49:18;;;;;;;8.80;1.10;;;;;;;;;;5088571;28;20213;-59
2021/04/20 13:51:55;;;;;;;0.77;0.77;;;;;;;;;;5080368;28;20281;-59
2021/04/20 13:54:40;;;;;;;0.33;0.27;;;;;;;;;;5076409;28;20198;-59
2021/04/20 13:57:16;;;;;;;1.10;0.70;;;;;;;;;;5076304;28;20186;-58
2021/04/20 13:59:55;;;;;;;3.80;0.93;;;;;;;;;;5071371;28;21074;-58
2021/04/20 14:02:35;;;;;;;9.63;1.57;;;;;;;;;;5095643;28;20598;-59
2021/04/20 14:05:03;;;;;;;1.83;1.50;;;;;;;;;;5075005;28;20520;-59
2021/04/20 14:07:32;;;;;;;3.60;1.70;;;;;;;;;;5079380;28;20180;-59
2021/04/20 14:09:59;;;;;;;9.67;0.97;;;;;;;;;;5076286;28;20703;-59
2021/04/20 14:12:28;;;;;;;2.17;1.03;;;;;;;;;;5073166;28;20198;-59
2021/04/20 14:14:59;;;;;;;0.27;0.27;;;;;;;;;;5072647;28;20236;-59
2021/04/20 14:17:41;;;;;;;7.47;0.80;;;;;;;;;;5072696;28;20182;-59
2021/04/20 14:20:10;;;;;;;4.17;2.40;;;;;;;;;;5079186;28;20315;-59
2021/04/20 14:22:37;;;;;;;2.13;0.70;;;;;;;;;;5081278;28;20190;-59
2021/04/20 14:25:05;;;;;;;0.77;0.77;;;;;;;;;;5092549;28;20181;-58
2021/04/20 14:27:33;;;;;;;8.13;1.40;;;;;;;;;;5085029;28;20196;-59
2021/04/20 14:30:01;;;;;;;3.90;2.00;;;;;;;;;;5073200;28;20194;-58
2021/04/20 14:32:36;;;;;;;3.80;1.87;;;;;;;;;;5064035;28;20191;-59
2021/04/20 14:35:04;;;;;;;2.00;0.93;;;;;;;;;;5074921;28;20185;-59
2021/04/20 14:37:32;;;;;;;3.07;1.80;;;;;;;;;;5071440;28;20190;-59
2021/04/20 14:39:59;;;;;;;1.80;1.60;;;;;;;;;;5059765;28;20217;-59
2021/04/20 14:42:26;;;;;;;20.83;3.53;;;;;;;;;;5060557;28;20198;-59
2021/04/20 14:44:56;;;;;;;4.87;1.97;;;;;;;;;;5060207;28;20555;-58
2021/04/20 14:47:26;;;;;;;6.77;1.97;;;;;;;;;;5057443;28;20233;-58
2021/04/20 14:49:54;;;;;;;1.80;0.63;;;;;;;;;;5059062;28;20464;-59
2021/04/20 14:52:23;;;;;;;0.60;0.43;;;;;;;;;;5056397;28;20188;-59
2021/04/20 14:54:55;;;;;;;9.80;1.80;;;;;;;;;;5067500;28;20191;-59
2021/04/20 14:57:30;;;;;;;3.70;3.40;;;;;;;;;;5063675;28;20184;-58
2021/04/20 14:59:57;;;;;;;2.70;1.93;;;;;;;;;;5060852;28;20209;-59
2021/04/20 15:02:25;;;;;;;3.60;1.77;;;;;;;;;;5058118;28;20198;-59
2021/04/20 15:04:58;;;;;;;2.43;2.33;;;;;;;;;;5049879;28;20413;-59
2021/04/20 15:07:35;;;;;;;0.00;0.00;;;;;;;;;;5058124;28;20688;-59
2021/04/20 15:10:09;;;;;;;0.77;0.67;;;;;;;;;;5056131;28;20189;-58
2021/04/20 15:12:54;;;;;;;6.10;3.13;;;;;;;;;;5058396;28;20185;-59
2021/04/20 15:15:40;;;;;;;0.50;0.50;;;;;;;;;;5058281;28;20187;-59
2021/04/20 15:18:09;;;;;;;0.77;0.60;;;;;;;;;;5057295;28;20190;-59
2021/04/20 15:20:38;;;;;;;3.30;0.97;;;;;;;;;;5055914;28;20230;-58
2021/04/20 15:23:09;;;;;;;2.93;1.87;;;;;;;;;;5045617;28;20284;-59
2021/04/20 15:25:43;;;;;;;6.50;1.03;;;;;;;;;;5055264;28;20228;-59
2021/04/20 15:28:20;;;;;;;1.80;0.60;;;;;;;;;;5055426;28;20955;-59
2021/04/20 15:30:48;;;;;;;1.90;1.03;;;;;;;;;;5072119;28;20247;-59
2021/04/20 15:33:20;;;;;;;5.20;3.10;;;;;;;;;;5068700;28;20201;-59
2021/04/20 15:35:59;;;;;;;0.40;0.40;;;;;;;;;;5052631;28;20192;-60
2021/04/20 15:38:26;;;;;;;1.13;0.67;;;;;;;;;;5056603;28;20959;-59
2021/04/20 15:40:53;;;;;;;3.50;0.80;;;;;;;;;;5053411;28;20236;-59
2021/04/20 15:43:21;;;;;;;0.73;0.40;;;;;;;;;;5051894;28;20193;-59
2021/04/20 15:45:48;;;;;;;1.50;1.40;;;;;;;;;;5056685;28;20198;-59
2021/04/20 15:48:21;;;;;;;0.63;0.40;;;;;;;;;;5056569;28;20202;-59
2021/04/20 15:50:52;;;;;;;5.53;1.43;;;;;;;;;;5056036;28;20441;-59
2021/04/20 15:53:24;;;;;;;0.20;0.20;;;;;;;;;;5059271;28;20187;-60
2021/04/20 15:55:51;;;;;;;5.43;2.90;;;;;;;;;;5070190;28;20618;-59
2021/04/20 15:58:23;;;;;;;3.37;1.53;;;;;;;;;;5077358;28;20207;-60
2021/04/20 16:00:52;;;;;;;2.73;1.00;;;;;;;;;;5063062;28;20217;-59
2021/04/20 16:03:20;;;;;;;0.20;0.20;;;;;;;;;;5062069;28;20194;-59
2021/04/20 16:05:47;;;;;;;0.20;0.20;;;;;;;;;;5068484;28;20651;-59
2021/04/20 16:08:18;;;;;;;6.27;1.17;;;;;;;;;;5077581;28;20224;-59
2021/04/20 16:10:46;;;;;;;0.33;0.33;;;;;;;;;;5071425;28;20190;-59
2021/04/20 16:13:15;;;;;;;3.73;1.03;;;;;;;;;;5063782;28;20197;-60
2021/04/20 16:15:44;;;;;;;1.20;1.10;;;;;;;;;;5059722;28;20197;-59
2021/04/20 16:18:13;;;;;;;0.47;0.37;;;;;;;;;;5061803;28;20183;-59
2021/04/20 16:20:45;;;;;;;0.90;0.90;;;;;;;;;;5057468;28;20260;-59
2021/04/20 16:23:12;;;;;;;3.30;1.50;;;;;;;;;;5050808;28;20208;-59
2021/04/20 16:25:39;;;;;;;0.50;0.50;;;;;;;;;;5058661;28;20604;-59
2021/04/20 16:28:11;;;;;;;0.90;0.67;;;;;;;;;;5058702;28;20264;-59
2021/04/20 16:30:39;;;;;;;4.90;1.23;;;;;;;;;;5059458;28;20209;-59
2021/04/20 16:33:11;;;;;;;5.37;1.07;;;;;;;;;;5057949;28;20712;-59
2021/04/20 16:35:39;;;;;;;0.00;0.00;;;;;;;;;;5057276;28;20191;-59
2021/04/20 16:38:16;;;;;;;0.20;0.20;;;;;;;;;;5065221;28;20186;-59
2021/04/20 16:41:02;;;;;;;6.23;2.00;;;;;;;;;;5077051;28;20715;-59
2021/04/20 16:43:32;;;;;;;0.77;0.77;;;;;;;;;;5064479;28;20656;-58
2021/04/20 16:46:08;;;;;;;4.50;0.83;;;;;;;;;;5051861;28;20294;-59
2021/04/20 16:48:43;;;;;;;5.27;2.93;;;;;;;;;;5061534;28;20504;-59
2021/04/20 16:51:12;;;;;;;2.37;0.97;;;;;;;;;;5060509;28;20576;-59
2021/04/20 16:53:54;;;;;;;3.33;0.67;;;;;;;;;;5074358;28;20213;-58
2021/04/20 16:56:50;;;;;;;6.80;1.70;;;;;;;;;;5059153;28;20209;-59
2021/04/20 16:59:35;;;;;;;0.57;0.57;;;;;;;;;;5055479;28;20222;-59
2021/04/20 17:02:20;;;;;;;0.30;0.30;;;;;;;;;;5059933;28;20195;-59
2021/04/20 17:04:46;;;;;;;1.50;0.97;;;;;;;;;;5053525;28;20187;-59
2021/04/20 17:07:13;;;;;;;0.40;0.40;;;;;;;;;;5057249;28;20702;-59
2021/04/20 17:10:05;;;;;;;0.37;0.23;;;;;;;;;;5057745;28;20777;-59
2021/04/20 17:12:51;;;;;;;1.87;1.77;;;;;;;;;;5017827;28;20190;-59
2021/04/20 17:15:21;;;;;;;0.57;0.57;;;;;;;;;;5061812;28;20720;-59
2021/04/20 17:18:12;;;;;;;7.93;1.17;;;;;;;;;;5059663;28;20189;-59
2021/04/20 17:20:53;;;;;;;2.37;1.10;;;;;;;;;;5056555;28;20230;-59
2021/04/20 17:23:39;;;;;;;6.23;1.60;;;;;;;;;;5061746;28;20174;-59
2021/04/20 17:26:20;;;;;;;8.70;0.97;;;;;;;;;;5063353;28;20209;-59
2021/04/20 17:28:50;;;;;;;1.57;1.47;;;;;;;;;;5060511;28;20762;-59
2021/04/20 17:31:35;;;;;;;2.20;1.30;;;;;;;;;;5063243;28;20187;-60
2021/04/20 17:34:08;;;;;;;0.57;0.40;;;;;;;;;;5060646;28;20181;-60
2021/04/20 17:36:40;;;;;;;5.33;0.83;;;;;;;;;;5061344;28;20878;-59
2021/04/20 17:39:24;;;;;;;3.80;0.80;;;;;;;;;;5055990;28;20304;-59
2021/04/20 17:42:04;;;;;;;1.60;0.83;;;;;;;;;;5062948;28;20210;-60
2021/04/20 17:44:32;;;;;;;4.43;1.27;;;;;;;;;;5060351;28;20170;-59
2021/04/20 17:47:17;;;;;;;0.23;0.23;;;;;;;;;;5063940;28;20178;-60
2021/04/20 17:49:46;;;;;;;10.80;2.77;;;;;;;;;;5065633;28;20282;-59
2021/04/20 17:52:18;;;;;;;8.60;1.50;;;;;;;;;;5063667;28;20641;-60
2021/04/20 17:54:48;;;;;;;10.23;1.37;;;;;;;;;;5060884;28;20197;-59
2021/04/20 17:57:23;;;;;;;0.63;0.63;;;;;;;;;;5066081;28;20213;-59
2021/04/20 18:00:08;;;;;;;2.33;1.00;;;;;;;;;;5055868;28;20182;-60
2021/04/20 18:02:53;;;;;;;0.87;0.60;;;;;;;;;;5058478;28;20191;-60
2021/04/20 18:05:22;;;;;;;0.50;0.50;;;;;;;;;;5052467;28;20227;-60
2021/04/20 18:08:27;;;;;;;0.53;0.40;;;;;;;;;;5058280;28;20184;-60
2021/04/20 18:11:10;;;;;;;3.90;0.77;;;;;;;;;;4944259;28;20227;-60
2021/04/20 18:13:43;;;;;;;0.57;0.57;;;;;;;;;;4955829;28;20189;-60
2021/04/20 18:16:28;;;;;;;0.97;0.70;;;;;;;;;;5023911;28;20203;-60
2021/04/20 18:18:55;;;;;;;5.53;5.00;;;;;;;;;;5065982;28;20209;-60
2021/04/20 18:21:26;;;;;;;0.00;0.00;;;;;;;;;;5068802;28;20508;-60
2021/04/20 18:23:52;;;;;;;0.87;0.70;;;;;;;;;;5063136;28;20655;-60
2021/04/20 18:26:29;;;;;;;1.97;0.90;;;;;;;;;;5076111;28;20328;-59
2021/04/20 18:29:14;;;;;;;6.60;1.40;;;;;;;;;;5039218;28;20183;-60
2021/04/20 18:31:47;;;;;;;2.50;1.17;;;;;;;;;;5062461;28;20201;-59
2021/04/20 18:34:17;;;;;;;0.00;0.00;;;;;;;;;;5060524;28;20185;-59
2021/04/20 18:36:51;;;;;;;1.07;1.03;;;;;;;;;;5079429;28;20707;-60
2021/04/20 18:39:39;;;;;;;0.83;0.80;;;;;;;;;;5071026;28;20177;-60
2021/04/20 18:42:07;;;;;;;4.60;1.07;;;;;;;;;;5078446;28;20189;-59
2021/04/20 18:44:37;;;;;;;0.10;0.10;;;;;;;;;;5047543;28;20194;-58
2021/04/20 18:47:13;;;;;;;8.83;1.97;;;;;;;;;;5059743;28;20725;-58
2021/04/20 18:50:02;;;;;;;0.10;0.10;;;;;;;;;;5061955;28;20191;-58
2021/04/20 18:52:29;;;;;;;0.40;0.40;;;;;;;;;;5065743;28;20676;-58
2021/04/20 18:55:13;;;;;;;0.00;0.00;;;;;;;;;;5071772;28;20826;-58
2021/04/20 18:57:43;;;;;;;8.77;2.53;;;;;;;;;;5055976;28;20585;-58
2021/04/20 19:00:29;;;;;;;0.40;0.40;;;;;;;;;;5058774;28;20221;-60
2021/04/20 19:03:01;;;;;;;1.40;0.80;;;;;;;;;;5059327;28;20187;-58
2021/04/20 19:05:46;;;;;;;0.53;0.53;;;;;;;;;;5063266;28;20528;-59
2021/04/20 19:08:19;;;;;;;1.40;0.93;;;;;;;;;;5056870;28;20921;-59
2021/04/20 19:10:55;;;;;;;11.47;1.93;;;;;;;;;;5061195;28;20202;-59
2021/04/20 19:13:27;;;;;;;1.07;0.57;;;;;;;;;;5059714;28;20686;-58
2021/04/20 19:15:57;;;;;;;4.63;1.07;;;;;;;;;;5059561;28;20247;-58
2021/04/20 19:18:42;;;;;;;2.23;1.23;;;;;;;;;;5063273;28;20470;-59
2021/04/20 19:21:27;;;;;;;4.73;2.00;;;;;;;;;;5065122;28;20225;-59
2021/04/20 19:23:57;;;;;;;1.27;0.57;;;;;;;;;;5037228;28;20198;-59